sensor_id;sensor_type;location;lat;lon;timestamp;pressure;altitude;pressure_sealevel;temperature;humidity
42621;BME280;28252;53.336;-6.298;2023-05-03T00:00:24;101925.72;;;22.25;100.00
42621;BME280;28252;53.336;-6.298;2023-05-03T00:00:57;101931.13;;;22.25;100.00
42621;BME280;28252;53.336;-6.298;2023-05-03T00:01:33;101929.44;;;22.24;100.00
42621;BME280;28252;53.336;-6.298;2023-05-03T00:02:05;101924.03;;;22.24;100.00
42621;BME280;28252;53.336;-6.298;2023-05-03T00:02:42;101914.16;;;22.23;100.00
42621;BME280;28252;53.336;-6.298;2023-05-03T00:03:16;101929.44;;;22.24;100.00
42621;BME280;28252;53.336;-6.298;2023-05-03T00:03:53;101926.88;;;22.22;100.00
42621;BME280;28252;53.336;-6.298;2023-05-03T00:04:29;101919.59;;;22.23;100.00
42621;BME280;28252;53.336;-6.298;2023-05-03T00:05:04;101922.31;;;22.23;100.00
42621;BME280;28252;53.336;-6.298;2023-05-03T00:05:38;101925.03;;;22.23;100.00
42621;BME280;28252;53.336;-6.298;2023-05-03T00:06:13;101931.44;;;22.22;100.00
42621;BME280;28252;53.336;-6.298;2023-05-03T00:06:48;101926.00;;;22.22;100.00
42621;BME280;28252;53.336;-6.298;2023-05-03T00:07:22;101923.31;;;22.22;100.00
42621;BME280;28252;53.336;-6.298;2023-05-03T00:07:58;101924.31;;;22.20;100.00
42621;BME280;28252;53.336;-6.298;2023-05-03T00:08:32;101924.31;;;22.20;100.00
42621;BME280;28252;53.336;-6.298;2023-05-03T00:09:10;101927.19;;;22.19;100.00
42621;BME280;28252;53.336;-6.298;2023-05-03T00:09:43;101923.59;;;22.18;100.00
42621;BME280;28252;53.336;-6.298;2023-05-03T00:10:14;101932.63;;;22.19;100.00
42621;BME280;28252;53.336;-6.298;2023-05-03T00:10:48;101920.88;;;22.18;100.00
42621;BME280;28252;53.336;-6.298;2023-05-03T00:11:19;101927.19;;;22.19;100.00
42621;BME280;28252;53.336;-6.298;2023-05-03T00:11:52;101931.75;;;22.18;100.00
42621;BME280;28252;53.336;-6.298;2023-05-03T00:12:25;101927.34;;;22.17;100.00
42621;BME280;28252;53.336;-6.298;2023-05-03T00:12:56;101927.34;;;22.17;100.00
42621;BME280;28252;53.336;-6.298;2023-05-03T00:13:32;101927.19;;;22.19;100.00
42621;BME280;28252;53.336;-6.298;2023-05-03T00:14:06;101926.31;;;22.18;100.00
42621;BME280;28252;53.336;-6.298;2023-05-03T00:14:37;101926.50;;;22.17;100.00
42621;BME280;28252;53.336;-6.298;2023-05-03T00:15:08;101925.63;;;22.16;100.00
42621;BME280;28252;53.336;-6.298;2023-05-03T00:15:42;101924.78;;;22.16;100.00
42621;BME280;28252;53.336;-6.298;2023-05-03T00:16:18;101928.34;;;22.16;100.00
42621;BME280;28252;53.336;-6.298;2023-05-03T00:16:54;101933.75;;;22.16;100.00
42621;BME280;28252;53.336;-6.298;2023-05-03T00:17:25;101924.94;;;22.14;100.00
42621;BME280;28252;53.336;-6.298;2023-05-03T00:17:56;101928.34;;;22.16;100.00
42621;BME280;28252;53.336;-6.298;2023-05-03T00:18:30;101924.09;;;22.14;100.00
42621;BME280;28252;53.336;-6.298;2023-05-03T00:19:03;101924.94;;;22.14;100.00
42621;BME280;28252;53.336;-6.298;2023-05-03T00:19:39;101928.63;;;22.13;100.00
42621;BME280;28252;53.336;-6.298;2023-05-03T00:20:12;101923.22;;;22.13;100.00
42621;BME280;28252;53.336;-6.298;2023-05-03T00:20:47;101928.63;;;22.13;100.00
42621;BME280;28252;53.336;-6.298;2023-05-03T00:21:18;101926.94;;;22.12;100.00
42621;BME280;28252;53.336;-6.298;2023-05-03T00:21:51;101933.22;;;22.13;100.00
42621;BME280;28252;53.336;-6.298;2023-05-03T00:22:25;101919.81;;;22.11;100.00
42621;BME280;28252;53.336;-6.298;2023-05-03T00:23:02;101929.81;;;22.11;100.00
42621;BME280;28252;53.336;-6.298;2023-05-03T00:23:36;101931.53;;;22.12;100.00
42621;BME280;28252;53.336;-6.298;2023-05-03T00:24:07;101934.41;;;22.10;100.00
42621;BME280;28252;53.336;-6.298;2023-05-03T00:24:42;101932.53;;;22.11;100.00
42621;BME280;28252;53.336;-6.298;2023-05-03T00:25:18;101934.41;;;22.10;100.00
42621;BME280;28252;53.336;-6.298;2023-05-03T00:25:52;101933.53;;;22.10;100.00
42621;BME280;28252;53.336;-6.298;2023-05-03T00:26:32;101926.41;;;22.09;100.00
42621;BME280;28252;53.336;-6.298;2023-05-03T00:27:03;101926.56;;;22.07;100.00
42621;BME280;28252;53.336;-6.298;2023-05-03T00:27:41;101929.28;;;22.07;100.00
42621;BME280;28252;53.336;-6.298;2023-05-03T00:28:15;101923.84;;;22.07;100.00
42621;BME280;28252;53.336;-6.298;2023-05-03T00:28:48;101926.69;;;22.06;100.00
42621;BME280;28252;53.336;-6.298;2023-05-03T00:29:19;101929.28;;;22.07;100.00
42621;BME280;28252;53.336;-6.298;2023-05-03T00:29:59;101928.44;;;22.07;100.00
42621;BME280;28252;53.336;-6.298;2023-05-03T00:30:32;101927.56;;;22.06;100.00
42621;BME280;28252;53.336;-6.298;2023-05-03T00:31:10;101926.69;;;22.06;100.00
42621;BME280;28252;53.336;-6.298;2023-05-03T00:31:45;101930.25;;;22.06;100.00
42621;BME280;28252;53.336;-6.298;2023-05-03T00:32:19;101929.56;;;22.04;100.00
42621;BME280;28252;53.336;-6.298;2023-05-03T00:32:57;101931.28;;;22.05;100.00
42621;BME280;28252;53.336;-6.298;2023-05-03T00:33:28;101928.72;;;22.04;100.00
42621;BME280;28252;53.336;-6.298;2023-05-03T00:34:07;101928.72;;;22.04;100.00
42621;BME280;28252;53.336;-6.298;2023-05-03T00:34:45;101936.00;;;22.03;100.00
42621;BME280;28252;53.336;-6.298;2023-05-03T00:35:18;101935.00;;;22.04;100.00
42621;BME280;28252;53.336;-6.298;2023-05-03T00:35:51;101932.44;;;22.02;100.00
42621;BME280;28252;53.336;-6.298;2023-05-03T00:38:34;101928.88;;;22.02;100.00
42621;BME280;28252;53.336;-6.298;2023-05-03T00:39:05;101929.88;;;22.01;100.00
42621;BME280;28252;53.336;-6.298;2023-05-03T00:39:39;101927.84;;;22.03;100.00
42621;BME280;28252;53.336;-6.298;2023-05-03T00:40:12;101930.91;;;22.00;100.00
42621;BME280;28252;53.336;-6.298;2023-05-03T00:40:53;101927.16;;;22.01;100.00
42621;BME280;28252;53.336;-6.298;2023-05-03T00:41:25;101934.44;;;22.00;100.00
42621;BME280;28252;53.336;-6.298;2023-05-03T00:41:59;101930.91;;;22.00;100.00
42621;BME280;28252;53.336;-6.298;2023-05-03T00:42:34;101930.03;;;21.99;100.00
42621;BME280;28252;53.336;-6.298;2023-05-03T00:43:10;101922.75;;;22.00;100.00
42621;BME280;28252;53.336;-6.298;2023-05-03T00:43:47;101925.47;;;22.00;100.00
42621;BME280;28252;53.336;-6.298;2023-05-03T00:44:23;101924.59;;;21.99;100.00
42621;BME280;28252;53.336;-6.298;2023-05-03T00:44:59;101924.75;;;21.98;100.00
42621;BME280;28252;53.336;-6.298;2023-05-03T00:45:33;101922.03;;;21.98;100.00
42621;BME280;28252;53.336;-6.298;2023-05-03T00:46:09;101929.31;;;21.97;100.00
42621;BME280;28252;53.336;-6.298;2023-05-03T00:46:47;101928.31;;;21.98;100.00
42621;BME280;28252;53.336;-6.298;2023-05-03T00:47:22;101925.75;;;21.97;100.00
42621;BME280;28252;53.336;-6.298;2023-05-03T00:47:58;101923.06;;;21.97;100.00
42621;BME280;28252;53.336;-6.298;2023-05-03T00:48:36;101923.06;;;21.97;100.00
42621;BME280;28252;53.336;-6.298;2023-05-03T00:49:09;101916.78;;;21.96;100.00
42621;BME280;28252;53.336;-6.298;2023-05-03T00:49:43;101922.22;;;21.96;100.00
42621;BME280;28252;53.336;-6.298;2023-05-03T00:50:14;101915.91;;;21.96;100.00
42621;BME280;28252;53.336;-6.298;2023-05-03T00:50:50;101919.66;;;21.95;100.00
42621;BME280;28252;53.336;-6.298;2023-05-03T00:51:25;101917.94;;;21.94;100.00
42621;BME280;28252;53.336;-6.298;2023-05-03T00:51:59;101919.66;;;21.95;100.00
42621;BME280;28252;53.336;-6.298;2023-05-03T00:52:33;101917.78;;;21.95;100.00
42621;BME280;28252;53.336;-6.298;2023-05-03T00:53:06;101917.09;;;21.93;100.00
42621;BME280;28252;53.336;-6.298;2023-05-03T00:53:42;101919.66;;;21.95;100.00
42621;BME280;28252;53.336;-6.298;2023-05-03T00:54:18;101917.09;;;21.93;100.00
42621;BME280;28252;53.336;-6.298;2023-05-03T00:54:50;101916.22;;;21.93;100.00
42621;BME280;28252;53.336;-6.298;2023-05-03T00:55:23;101916.22;;;21.93;100.00
42621;BME280;28252;53.336;-6.298;2023-05-03T00:56:00;101914.53;;;21.92;100.00
42621;BME280;28252;53.336;-6.298;2023-05-03T00:56:35;101917.22;;;21.92;100.00
42621;BME280;28252;53.336;-6.298;2023-05-03T00:57:14;101919.94;;;21.92;100.00
42621;BME280;28252;53.336;-6.298;2023-05-03T00:57:47;101917.22;;;21.92;100.00
42621;BME280;28252;53.336;-6.298;2023-05-03T00:58:23;101911.81;;;21.92;100.00
42621;BME280;28252;53.336;-6.298;2023-05-03T00:58:54;101909.94;;;21.92;100.00
42621;BME280;28252;53.336;-6.298;2023-05-03T00:59:28;101907.38;;;21.91;100.00
42621;BME280;28252;53.336;-6.298;2023-05-03T01:00:04;101904.66;;;21.91;100.00
42621;BME280;28252;53.336;-6.298;2023-05-03T01:00:45;101914.81;;;21.89;100.00
42621;BME280;28252;53.336;-6.298;2023-05-03T01:01:16;101912.94;;;21.89;100.00
42621;BME280;28252;53.336;-6.298;2023-05-03T01:01:53;101910.22;;;21.89;100.00
42621;BME280;28252;53.336;-6.298;2023-05-03T01:02:30;101911.09;;;21.90;100.00
42621;BME280;28252;53.336;-6.298;2023-05-03T01:03:04;101911.09;;;21.90;100.00
42621;BME280;28252;53.336;-6.298;2023-05-03T01:03:40;101910.22;;;21.89;100.00
42621;BME280;28252;53.336;-6.298;2023-05-03T01:04:16;101910.22;;;21.89;100.00
42621;BME280;28252;53.336;-6.298;2023-05-03T01:04:47;101908.56;;;21.88;100.00
42621;BME280;28252;53.336;-6.298;2023-05-03T01:05:21;101912.09;;;21.89;100.00
42621;BME280;28252;53.336;-6.298;2023-05-03T01:06:02;101911.25;;;21.88;100.00
42621;BME280;28252;53.336;-6.298;2023-05-03T01:06:47;101907.66;;;21.88;100.00
42621;BME280;28252;53.336;-6.298;2023-05-03T01:07:30;101906.00;;;21.87;100.00
42621;BME280;28252;53.336;-6.298;2023-05-03T01:08:13;101906.00;;;21.87;100.00
42621;BME280;28252;53.336;-6.298;2023-05-03T01:10:44;101908.69;;;21.87;100.00
42621;BME280;28252;53.336;-6.298;2023-05-03T01:11:21;101904.25;;;21.86;100.00
42621;BME280;28252;53.336;-6.298;2023-05-03T01:11:58;101908.00;;;21.85;100.00
42621;BME280;28252;53.336;-6.298;2023-05-03T01:13:21;101906.13;;;21.85;100.00
42621;BME280;28252;53.336;-6.298;2023-05-03T01:14:01;101902.56;;;21.85;100.00
42621;BME280;28252;53.336;-6.298;2023-05-03T01:14:40;101899.00;;;21.84;100.00
42621;BME280;28252;53.336;-6.298;2023-05-03T01:15:43;101899.88;;;21.85;100.00
42621;BME280;28252;53.336;-6.298;2023-05-03T01:16:52;101902.56;;;21.85;100.00
42621;BME280;28252;53.336;-6.298;2023-05-03T01:17:33;101895.44;;;21.83;100.00
42621;BME280;28252;53.336;-6.298;2023-05-03T01:18:31;101900.84;;;21.83;100.00
42621;BME280;28252;53.336;-6.298;2023-05-03T01:19:18;101900.84;;;21.83;100.00
42621;BME280;28252;53.336;-6.298;2023-05-03T01:20:04;101899.13;;;21.82;100.00
42621;BME280;28252;53.336;-6.298;2023-05-03T01:20:38;101893.72;;;21.82;100.00
42621;BME280;28252;53.336;-6.298;2023-05-03T01:21:11;101893.72;;;21.82;100.00
42621;BME280;28252;53.336;-6.298;2023-05-03T01:21:46;101897.31;;;21.83;100.00
42621;BME280;28252;53.336;-6.298;2023-05-03T01:22:26;101895.59;;;21.82;100.00
42621;BME280;28252;53.336;-6.298;2023-05-03T01:23:10;101897.44;;;21.81;100.00
42621;BME280;28252;53.336;-6.298;2023-05-03T01:23:56;101894.88;;;21.80;100.00
42621;BME280;28252;53.336;-6.298;2023-05-03T01:24:31;101894.88;;;21.80;100.00
42621;BME280;28252;53.336;-6.298;2023-05-03T01:25:06;101894.88;;;21.80;100.00
42621;BME280;28252;53.336;-6.298;2023-05-03T01:25:40;101894.03;;;21.79;100.00
42621;BME280;28252;53.336;-6.298;2023-05-03T01:26:14;101895.88;;;21.79;100.00
42621;BME280;28252;53.336;-6.298;2023-05-03T01:26:48;101897.75;;;21.78;100.00
42621;BME280;28252;53.336;-6.298;2023-05-03T01:27:21;101894.03;;;21.79;100.00
42621;BME280;28252;53.336;-6.298;2023-05-03T01:27:55;101898.59;;;21.79;100.00
42621;BME280;28252;53.336;-6.298;2023-05-03T01:28:27;101902.19;;;21.79;100.00
42621;BME280;28252;53.336;-6.298;2023-05-03T01:29:02;101894.03;;;21.79;100.00
42621;BME280;28252;53.336;-6.298;2023-05-03T01:29:36;101900.47;;;21.78;100.00
42621;BME280;28252;53.336;-6.298;2023-05-03T01:30:10;101902.31;;;21.78;100.00
42621;BME280;28252;53.336;-6.298;2023-05-03T01:30:41;101901.44;;;21.77;100.00
42621;BME280;28252;53.336;-6.298;2023-05-03T01:31:20;101894.34;;;21.76;100.00
42621;BME280;28252;53.336;-6.298;2023-05-03T01:31:58;101895.19;;;21.77;100.00
42621;BME280;28252;53.336;-6.298;2023-05-03T01:32:39;101891.63;;;21.76;100.00
42621;BME280;28252;53.336;-6.298;2023-05-03T01:33:36;101893.47;;;21.76;100.00
42621;BME280;28252;53.336;-6.298;2023-05-03T01:34:20;101893.47;;;21.76;100.00
42621;BME280;28252;53.336;-6.298;2023-05-03T01:35:03;101891.94;;;21.73;100.00
42621;BME280;28252;53.336;-6.298;2023-05-03T01:35:39;101892.63;;;21.75;100.00
42621;BME280;28252;53.336;-6.298;2023-05-03T01:36:22;101891.78;;;21.75;100.00
42621;BME280;28252;53.336;-6.298;2023-05-03T01:37:03;101887.34;;;21.74;100.00
42621;BME280;28252;53.336;-6.298;2023-05-03T01:37:39;101898.03;;;21.75;100.00
42621;BME280;28252;53.336;-6.298;2023-05-03T01:38:14;101896.34;;;21.74;100.00
42621;BME280;28252;53.336;-6.298;2023-05-03T01:38:49;101890.06;;;21.74;100.00
42621;BME280;28252;53.336;-6.298;2023-05-03T01:39:23;101886.66;;;21.72;100.00
42621;BME280;28252;53.336;-6.298;2023-05-03T01:40:04;101892.91;;;21.72;100.00
42621;BME280;28252;53.336;-6.298;2023-05-03T01:40:41;101889.38;;;21.72;100.00
42621;BME280;28252;53.336;-6.298;2023-05-03T01:41:17;101884.78;;;21.72;100.00
42621;BME280;28252;53.336;-6.298;2023-05-03T01:41:55;101888.38;;;21.73;100.00
42621;BME280;28252;53.336;-6.298;2023-05-03T01:42:31;101891.09;;;21.73;100.00
42621;BME280;28252;53.336;-6.298;2023-05-03T01:43:03;101888.38;;;21.73;100.00
42621;BME280;28252;53.336;-6.298;2023-05-03T01:43:35;101893.78;;;21.73;100.00
42621;BME280;28252;53.336;-6.298;2023-05-03T01:44:11;101892.06;;;21.72;100.00
42621;BME280;28252;53.336;-6.298;2023-05-03T01:44:46;101884.78;;;21.72;100.00
42621;BME280;28252;53.336;-6.298;2023-05-03T01:45:20;101888.38;;;21.73;100.00
42621;BME280;28252;53.336;-6.298;2023-05-03T01:45:51;101890.22;;;21.72;100.00
42621;BME280;28252;53.336;-6.298;2023-05-03T01:46:24;101888.53;;;21.71;100.00
42621;BME280;28252;53.336;-6.298;2023-05-03T01:46:58;101885.81;;;21.71;100.00
42621;BME280;28252;53.336;-6.298;2023-05-03T01:47:29;101881.22;;;21.72;100.00
42621;BME280;28252;53.336;-6.298;2023-05-03T01:48:07;101887.66;;;21.71;100.00
42621;BME280;28252;53.336;-6.298;2023-05-03T01:48:42;101895.63;;;21.72;100.00
42621;BME280;28252;53.336;-6.298;2023-05-03T01:49:15;101891.22;;;21.71;100.00
42621;BME280;28252;53.336;-6.298;2023-05-03T01:49:51;101887.81;;;21.69;100.00
42621;BME280;28252;53.336;-6.298;2023-05-03T01:50:24;101884.09;;;21.70;100.00
42621;BME280;28252;53.336;-6.298;2023-05-03T01:51:00;101889.50;;;21.70;100.00
42621;BME280;28252;53.336;-6.298;2023-05-03T01:51:33;101889.50;;;21.70;100.00
42621;BME280;28252;53.336;-6.298;2023-05-03T01:52:09;101886.81;;;21.70;100.00
42621;BME280;28252;53.336;-6.298;2023-05-03T01:52:42;101884.94;;;21.71;100.00
42621;BME280;28252;53.336;-6.298;2023-05-03T01:53:14;101883.25;;;21.70;100.00
42621;BME280;28252;53.336;-6.298;2023-05-03T01:53:46;101886.09;;;21.68;100.00
42621;BME280;28252;53.336;-6.298;2023-05-03T01:54:18;101886.09;;;21.68;100.00
42621;BME280;28252;53.336;-6.298;2023-05-03T01:54:48;101886.09;;;21.68;100.00
42621;BME280;28252;53.336;-6.298;2023-05-03T01:55:20;101886.09;;;21.68;100.00
42621;BME280;28252;53.336;-6.298;2023-05-03T01:55:53;101881.66;;;21.67;100.00
42621;BME280;28252;53.336;-6.298;2023-05-03T01:56:29;101886.09;;;21.68;100.00
42621;BME280;28252;53.336;-6.298;2023-05-03T01:57:00;101885.25;;;21.68;100.00
42621;BME280;28252;53.336;-6.298;2023-05-03T01:57:33;101879.84;;;21.68;100.00
42621;BME280;28252;53.336;-6.298;2023-05-03T01:58:09;101885.25;;;21.68;100.00
42621;BME280;28252;53.336;-6.298;2023-05-03T01:58:47;101878.97;;;21.67;100.00
42621;BME280;28252;53.336;-6.298;2023-05-03T01:59:18;101878.97;;;21.67;100.00
42621;BME280;28252;53.336;-6.298;2023-05-03T01:59:53;101877.28;;;21.66;100.00
42621;BME280;28252;53.336;-6.298;2023-05-03T02:00:26;101876.41;;;21.66;100.00
42621;BME280;28252;53.336;-6.298;2023-05-03T02:00:57;101877.28;;;21.66;100.00
42621;BME280;28252;53.336;-6.298;2023-05-03T02:01:31;101882.00;;;21.64;100.00
42621;BME280;28252;53.336;-6.298;2023-05-03T02:02:04;101875.56;;;21.65;100.00
42621;BME280;28252;53.336;-6.298;2023-05-03T02:02:40;101875.56;;;21.65;100.00
42621;BME280;28252;53.336;-6.298;2023-05-03T02:03:20;101872.84;;;21.65;100.00
42621;BME280;28252;53.336;-6.298;2023-05-03T02:03:52;101866.72;;;21.63;100.00
42621;BME280;28252;53.336;-6.298;2023-05-03T02:04:25;101868.44;;;21.64;100.00
42621;BME280;28252;53.336;-6.298;2023-05-03T02:04:56;101868.44;;;21.64;100.00
42621;BME280;28252;53.336;-6.298;2023-05-03T02:05:29;101866.72;;;21.63;100.00
42621;BME280;28252;53.336;-6.298;2023-05-03T02:06:04;101865.00;;;21.62;100.00
42621;BME280;28252;53.336;-6.298;2023-05-03T02:06:43;101866.72;;;21.63;100.00
42621;BME280;28252;53.336;-6.298;2023-05-03T02:07:14;101871.31;;;21.62;100.00
42621;BME280;28252;53.336;-6.298;2023-05-03T02:07:47;101866.72;;;21.63;100.00
42621;BME280;28252;53.336;-6.298;2023-05-03T02:08:24;101863.31;;;21.61;100.00
42621;BME280;28252;53.336;-6.298;2023-05-03T02:09:02;101867.72;;;21.62;100.00
42621;BME280;28252;53.336;-6.298;2023-05-03T02:09:35;101865.00;;;21.62;100.00
42621;BME280;28252;53.336;-6.298;2023-05-03T02:10:09;101860.47;;;21.62;100.00
42621;BME280;28252;53.336;-6.298;2023-05-03T02:10:46;101863.31;;;21.61;100.00
42621;BME280;28252;53.336;-6.298;2023-05-03T02:11:17;101867.72;;;21.62;100.00
42621;BME280;28252;53.336;-6.298;2023-05-03T02:11:53;101869.59;;;21.61;100.00
42621;BME280;28252;53.336;-6.298;2023-05-03T02:12:26;101862.59;;;21.59;100.00
42621;BME280;28252;53.336;-6.298;2023-05-03T02:12:59;101868.75;;;21.61;100.00
42621;BME280;28252;53.336;-6.298;2023-05-03T02:13:36;101865.31;;;21.59;100.00
42621;BME280;28252;53.336;-6.298;2023-05-03T02:14:12;101868.75;;;21.61;100.00
42621;BME280;28252;53.336;-6.298;2023-05-03T02:14:45;101864.31;;;21.60;100.00
42621;BME280;28252;53.336;-6.298;2023-05-03T02:15:18;101870.72;;;21.59;100.00
42621;BME280;28252;53.336;-6.298;2023-05-03T02:15:52;101866.31;;;21.58;100.00
42621;BME280;28252;53.336;-6.298;2023-05-03T02:16:29;101863.63;;;21.58;100.00
42621;BME280;28252;53.336;-6.298;2023-05-03T02:17:02;101868.19;;;21.57;100.00
42621;BME280;28252;53.336;-6.298;2023-05-03T02:17:41;101861.06;;;21.56;100.00
42621;BME280;28252;53.336;-6.298;2023-05-03T02:18:12;101864.59;;;21.57;100.00
42621;BME280;28252;53.336;-6.298;2023-05-03T02:18:43;101869.03;;;21.58;100.00
42621;BME280;28252;53.336;-6.298;2023-05-03T02:19:20;101856.47;;;21.57;100.00
42621;BME280;28252;53.336;-6.298;2023-05-03T02:19:51;101863.75;;;21.56;100.00
42621;BME280;28252;53.336;-6.298;2023-05-03T02:20:25;101863.75;;;21.56;100.00
42621;BME280;28252;53.336;-6.298;2023-05-03T02:21:04;101860.22;;;21.56;100.00
42621;BME280;28252;53.336;-6.298;2023-05-03T02:21:38;101864.75;;;21.55;100.00
42621;BME280;28252;53.336;-6.298;2023-05-03T02:22:09;101869.34;;;21.55;100.00
42621;BME280;28252;53.336;-6.298;2023-05-03T02:22:45;101866.63;;;21.55;100.00
42621;BME280;28252;53.336;-6.298;2023-05-03T02:23:20;101858.50;;;21.55;100.00
42621;BME280;28252;53.336;-6.298;2023-05-03T02:23:51;101863.91;;;21.55;100.00
42621;BME280;28252;53.336;-6.298;2023-05-03T02:24:25;101862.19;;;21.54;100.00
42621;BME280;28252;53.336;-6.298;2023-05-03T02:25:01;101862.19;;;21.54;100.00
42621;BME280;28252;53.336;-6.298;2023-05-03T02:25:34;101867.63;;;21.54;100.00
42621;BME280;28252;53.336;-6.298;2023-05-03T02:26:07;101863.06;;;21.54;100.00
42621;BME280;28252;53.336;-6.298;2023-05-03T02:26:40;101869.34;;;21.55;100.00
42621;BME280;28252;53.336;-6.298;2023-05-03T02:27:17;101866.78;;;21.53;100.00
42621;BME280;28252;53.336;-6.298;2023-05-03T02:27:52;101867.63;;;21.54;100.00
42621;BME280;28252;53.336;-6.298;2023-05-03T02:28:24;101866.78;;;21.53;100.00
42621;BME280;28252;53.336;-6.298;2023-05-03T02:28:57;101867.63;;;21.54;100.00
42621;BME280;28252;53.336;-6.298;2023-05-03T02:29:31;101867.63;;;21.54;100.00
42621;BME280;28252;53.336;-6.298;2023-05-03T02:30:08;101865.94;;;21.53;100.00
42621;BME280;28252;53.336;-6.298;2023-05-03T02:30:44;101859.81;;;21.51;100.00
42621;BME280;28252;53.336;-6.298;2023-05-03T02:31:17;101860.66;;;21.51;100.00
42621;BME280;28252;53.336;-6.298;2023-05-03T02:31:53;101865.22;;;21.51;100.00
42621;BME280;28252;53.336;-6.298;2023-05-03T02:32:24;101862.53;;;21.51;100.00
42621;BME280;28252;53.336;-6.298;2023-05-03T02:33:00;101864.34;;;21.50;100.00
42621;BME280;28252;53.336;-6.298;2023-05-03T02:33:37;101868.94;;;21.50;100.00
42621;BME280;28252;53.336;-6.298;2023-05-03T02:34:11;101860.81;;;21.50;100.00
42621;BME280;28252;53.336;-6.298;2023-05-03T02:34:52;101862.66;;;21.49;100.00
42621;BME280;28252;53.336;-6.298;2023-05-03T02:35:27;101859.09;;;21.49;100.00
42621;BME280;28252;53.336;-6.298;2023-05-03T02:36:01;101863.66;;;21.48;100.00
42621;BME280;28252;53.336;-6.298;2023-05-03T02:36:33;101859.09;;;21.49;100.00
42621;BME280;28252;53.336;-6.298;2023-05-03T02:37:06;101861.78;;;21.49;100.00
42621;BME280;28252;53.336;-6.298;2023-05-03T02:37:39;101856.56;;;21.47;100.00
42621;BME280;28252;53.336;-6.298;2023-05-03T02:38:14;101852.97;;;21.47;100.00
42621;BME280;28252;53.336;-6.298;2023-05-03T02:38:46;101859.25;;;21.47;100.00
42621;BME280;28252;53.336;-6.298;2023-05-03T02:39:20;101856.56;;;21.47;100.00
42621;BME280;28252;53.336;-6.298;2023-05-03T02:39:53;101867.50;;;21.45;100.00
42621;BME280;28252;53.336;-6.298;2023-05-03T02:40:28;101865.63;;;21.46;100.00
42621;BME280;28252;53.336;-6.298;2023-05-03T02:41:05;101864.78;;;21.45;100.00
42621;BME280;28252;53.336;-6.298;2023-05-03T02:41:38;101864.78;;;21.45;100.00
42621;BME280;28252;53.336;-6.298;2023-05-03T02:43:02;101863.06;;;21.44;100.00
42621;BME280;28252;53.336;-6.298;2023-05-03T02:43:35;101861.22;;;21.45;100.00
42621;BME280;28252;53.336;-6.298;2023-05-03T02:44:11;101857.50;;;21.46;100.00
42621;BME280;28252;53.336;-6.298;2023-05-03T02:44:47;101860.38;;;21.44;100.00
42621;BME280;28252;53.336;-6.298;2023-05-03T02:45:18;101854.09;;;21.44;100.00
42621;BME280;28252;53.336;-6.298;2023-05-03T02:45:53;101857.66;;;21.44;100.00
42621;BME280;28252;53.336;-6.298;2023-05-03T02:46:30;101859.38;;;21.45;100.00
42621;BME280;28252;53.336;-6.298;2023-05-03T02:47:03;101854.94;;;21.44;100.00
42621;BME280;28252;53.336;-6.298;2023-05-03T02:47:43;101854.09;;;21.44;100.00
42621;BME280;28252;53.336;-6.298;2023-05-03T02:48:19;101857.66;;;21.44;100.00
42621;BME280;28252;53.336;-6.298;2023-05-03T02:48:55;101852.38;;;21.43;100.00
42621;BME280;28252;53.336;-6.298;2023-05-03T02:49:26;101852.53;;;21.41;100.00
42621;BME280;28252;53.336;-6.298;2023-05-03T02:50:02;101851.69;;;21.41;100.00
42621;BME280;28252;53.336;-6.298;2023-05-03T02:50:39;101857.09;;;21.41;100.00
42621;BME280;28252;53.336;-6.298;2023-05-03T02:51:12;101857.09;;;21.41;100.00
42621;BME280;28252;53.336;-6.298;2023-05-03T02:51:50;101857.09;;;21.41;100.00
42621;BME280;28252;53.336;-6.298;2023-05-03T02:52:23;101863.38;;;21.41;100.00
42621;BME280;28252;53.336;-6.298;2023-05-03T02:52:54;101857.94;;;21.41;100.00
42621;BME280;28252;53.336;-6.298;2023-05-03T02:53:26;101858.97;;;21.40;100.00
42621;BME280;28252;53.336;-6.298;2023-05-03T02:54:09;101858.25;;;21.38;100.00
42621;BME280;28252;53.336;-6.298;2023-05-03T02:54:42;101858.25;;;21.38;100.00
42621;BME280;28252;53.336;-6.298;2023-05-03T02:55:18;101851.97;;;21.38;100.00
42621;BME280;28252;53.336;-6.298;2023-05-03T02:55:53;101854.53;;;21.39;100.00
42621;BME280;28252;53.336;-6.298;2023-05-03T02:56:27;101856.56;;;21.37;100.00
42621;BME280;28252;53.336;-6.298;2023-05-03T02:57:00;101851.13;;;21.37;100.00
42621;BME280;28252;53.336;-6.298;2023-05-03T02:57:32;101851.13;;;21.37;100.00
42621;BME280;28252;53.336;-6.298;2023-05-03T02:58:03;101851.13;;;21.37;100.00
42621;BME280;28252;53.336;-6.298;2023-05-03T02:58:36;101851.13;;;21.37;100.00
42621;BME280;28252;53.336;-6.298;2023-05-03T02:59:14;101850.28;;;21.37;100.00
42621;BME280;28252;53.336;-6.298;2023-05-03T02:59:45;101853.84;;;21.37;100.00
42621;BME280;28252;53.336;-6.298;2023-05-03T03:00:18;101849.41;;;21.36;100.00
42621;BME280;28252;53.336;-6.298;2023-05-03T03:00:52;101853.16;;;21.35;100.00
42621;BME280;28252;53.336;-6.298;2023-05-03T03:01:25;101854.00;;;21.36;100.00
42621;BME280;28252;53.336;-6.298;2023-05-03T03:01:59;101855.88;;;21.35;100.00
42621;BME280;28252;53.336;-6.298;2023-05-03T03:02:32;101857.69;;;21.35;100.00
42621;BME280;28252;53.336;-6.298;2023-05-03T03:03:08;101852.28;;;21.35;100.00
42621;BME280;28252;53.336;-6.298;2023-05-03T03:03:48;101853.31;;;21.34;100.00
42621;BME280;28252;53.336;-6.298;2023-05-03T03:04:19;101849.72;;;21.33;100.00
42621;BME280;28252;53.336;-6.298;2023-05-03T03:04:55;101844.28;;;21.33;100.00
42621;BME280;28252;53.336;-6.298;2023-05-03T03:05:34;101851.56;;;21.33;100.00